createdAt,value
2016-11-09T00:00:54.967Z,3.57
2016-11-09T00:01:40.070Z,3.55
2016-11-09T00:02:40.407Z,3.54
2016-11-09T00:03:40.108Z,3.45
2016-11-09T00:05:40.135Z,3.42
2016-11-09T00:06:40.150Z,3.51
2016-11-09T00:07:40.475Z,3.4
2016-11-09T00:08:40.193Z,3.31
2016-11-09T00:09:40.204Z,3.33
2016-11-09T00:10:40.231Z,3.43
2016-11-09T00:11:40.239Z,3.33
2016-11-09T00:12:40.264Z,3.26
2016-11-09T00:13:40.272Z,3.26
2016-11-09T00:14:40.289Z,3.18
2016-11-09T00:15:40.309Z,3.18
2016-11-09T00:16:40.321Z,3.17
2016-11-09T00:18:40.393Z,3.13
2016-11-09T00:19:40.372Z,3.2
2016-11-09T00:20:40.388Z,3.18
2016-11-09T00:21:40.409Z,3.14
2016-11-09T00:23:55.355Z,3.21
2016-11-09T00:24:40.458Z,3.17
2016-11-09T00:25:40.474Z,3.14
2016-11-09T00:26:40.490Z,3.17
2016-11-09T00:27:40.504Z,3.15
2016-11-09T00:28:40.524Z,3.14
2016-11-09T00:29:40.542Z,3.11
2016-11-09T00:30:55.471Z,3.15
2016-11-09T00:31:40.577Z,3.15
2016-11-09T00:32:55.502Z,3.26
2016-11-09T00:33:55.517Z,3.29
2016-11-09T00:34:40.622Z,3.21
2016-11-09T00:35:40.634Z,3.24
2016-11-09T00:36:40.659Z,3.2
2016-11-09T00:37:40.670Z,3.26
2016-11-09T00:38:40.690Z,3.35
2016-11-09T00:39:55.622Z,3.24
2016-11-09T00:40:40.723Z,3.28
2016-11-09T00:41:40.742Z,3.35
2016-11-09T00:42:40.756Z,3.18
2016-11-09T00:43:40.772Z,3.26
2016-11-09T00:44:40.788Z,3.21
2016-11-09T00:45:40.802Z,3.18
2016-11-09T00:46:55.736Z,3.18
2016-11-09T00:47:40.881Z,3.24
2016-11-09T00:48:55.768Z,3.28
2016-11-09T00:49:40.911Z,3.31
2016-11-09T00:50:41.146Z,3.28
2016-11-09T00:51:40.906Z,3.29
2016-11-09T00:52:40.922Z,3.29
2016-11-09T00:53:40.936Z,3.29
2016-11-09T00:54:40.995Z,3.29
2016-11-09T00:55:55.888Z,3.17
2016-11-09T00:56:40.993Z,3.2
2016-11-09T00:57:41.004Z,3.15
2016-11-09T00:58:41.028Z,3.21
2016-11-09T00:59:55.954Z,3.28
2016-11-09T01:00:55.973Z,3.17
2016-11-09T01:01:41.079Z,3.17
2016-11-09T01:02:56.003Z,3.17
2016-11-09T01:03:56.020Z,3.17
2016-11-09T01:04:41.121Z,3.18
2016-11-09T01:05:41.142Z,3.15
2016-11-09T01:06:41.164Z,3.2
2016-11-09T01:07:41.172Z,3.13
2016-11-09T01:08:41.191Z,3.06
2016-11-09T01:09:41.210Z,3.11
2016-11-09T01:10:41.223Z,3.21
2016-11-09T01:12:41.263Z,3.13
2016-11-09T01:13:41.272Z,3.21
2016-11-09T01:14:41.289Z,3.11
2016-11-09T01:15:41.305Z,3.18
2016-11-09T01:16:41.329Z,3.13
2016-11-09T01:17:56.253Z,3.28
2016-11-09T01:18:41.353Z,3.2
2016-11-09T01:20:41.391Z,3.2
2016-11-09T01:21:41.403Z,3.26
2016-11-09T01:22:41.417Z,3.26
2016-11-09T01:23:41.434Z,3.15
2016-11-09T01:24:41.452Z,3.23
2016-11-09T01:27:41.501Z,3.31
2016-11-09T01:28:41.523Z,3.42
2016-11-09T01:29:41.538Z,3.35
2016-11-09T01:30:41.559Z,3.2
2016-11-09T01:31:41.572Z,3.21
2016-11-09T01:32:41.590Z,3.2
2016-11-09T01:33:56.518Z,3.2
2016-11-09T01:34:41.625Z,3.33
2016-11-09T01:35:41.637Z,3.32
2016-11-09T01:36:41.653Z,3.31
2016-11-09T01:37:41.667Z,3.33
2016-11-09T01:38:41.692Z,3.4
2016-11-09T01:39:41.707Z,3.33
2016-11-09T01:40:41.723Z,3.31
2016-11-09T01:41:41.737Z,3.4
2016-11-09T01:42:41.758Z,3.36
2016-11-09T01:44:41.789Z,3.36
2016-11-09T01:45:41.809Z,3.4
2016-11-09T01:46:41.821Z,3.31
2016-11-09T01:47:56.752Z,3.33
2016-11-09T01:48:41.854Z,3.32
2016-11-09T01:49:41.870Z,3.43
2016-11-09T01:50:41.890Z,3.42
2016-11-09T01:51:41.906Z,3.42
2016-11-09T01:52:41.920Z,3.48
2016-11-09T01:54:42.267Z,3.45
2016-11-09T01:55:41.966Z,3.47
2016-11-09T01:56:41.989Z,3.42
2016-11-09T01:57:42.004Z,3.33
2016-11-09T01:58:56.935Z,3.47
2016-11-09T01:59:42.334Z,3.33
2016-11-09T02:00:42.052Z,3.45
2016-11-09T02:01:42.068Z,3.45
2016-11-09T02:02:42.093Z,3.43
2016-11-09T02:03:42.101Z,3.36
2016-11-09T02:04:42.160Z,3.36
2016-11-09T02:05:57.050Z,3.32
2016-11-09T02:06:42.151Z,3.33
2016-11-09T02:07:42.168Z,3.42
2016-11-09T02:08:42.240Z,3.48
2016-11-09T02:09:42.199Z,3.51
2016-11-09T02:10:42.225Z,3.26
2016-11-09T02:11:42.237Z,3.33
2016-11-09T02:13:42.270Z,3.42
2016-11-09T02:14:57.197Z,3.45
2016-11-09T02:15:42.338Z,3.48
2016-11-09T02:16:42.325Z,3.4
2016-11-09T02:17:42.337Z,3.33
2016-11-09T02:18:42.352Z,3.45
2016-11-09T02:19:42.400Z,3.43
2016-11-09T02:20:57.301Z,3.36
2016-11-09T02:21:42.401Z,3.39
2016-11-09T02:22:42.421Z,3.29
2016-11-09T02:23:42.434Z,3.29
2016-11-09T02:24:42.448Z,3.23
2016-11-09T02:26:42.489Z,3.18
2016-11-09T02:27:42.502Z,3.18
2016-11-09T02:28:42.519Z,3.23
2016-11-09T02:29:42.539Z,3.29
2016-11-09T02:30:57.463Z,3.31
2016-11-09T02:31:42.574Z,3.33
2016-11-09T02:32:42.589Z,3.17
2016-11-09T02:33:42.599Z,3.18
2016-11-09T02:34:42.615Z,3.18
2016-11-09T02:35:42.637Z,3.14
2016-11-09T02:36:42.656Z,3.08
2016-11-09T02:37:57.583Z,3.2
2016-11-09T02:38:43.000Z,3.18
2016-11-09T02:39:42.704Z,3.17
2016-11-09T02:40:42.719Z,3.1
2016-11-09T02:41:42.733Z,3.08
2016-11-09T02:43:42.776Z,3.14
2016-11-09T02:44:42.780Z,3.03
2016-11-09T02:45:42.800Z,3.05
2016-11-09T02:46:57.731Z,3.18
2016-11-09T02:47:42.832Z,3.1
2016-11-09T02:48:43.152Z,3.18
2016-11-09T02:49:42.870Z,3.05
2016-11-09T02:50:42.878Z,3.14
2016-11-09T02:52:42.915Z,3.14
2016-11-09T02:53:42.931Z,3.23
2016-11-09T02:54:57.863Z,3.18
2016-11-09T02:55:42.967Z,3.26
2016-11-09T02:56:42.985Z,3.23
2016-11-09T02:57:42.999Z,3.2
2016-11-09T02:58:43.011Z,3.29
2016-11-09T02:59:43.032Z,3.31
2016-11-09T03:01:57.983Z,3.17
2016-11-09T03:02:43.084Z,3.32
2016-11-09T03:03:43.102Z,3.17
2016-11-09T03:04:43.117Z,3.15
2016-11-09T03:05:43.134Z,3.13
2016-11-09T03:06:58.065Z,3.14
2016-11-09T03:07:43.161Z,3.21
2016-11-09T03:08:43.183Z,3.2
2016-11-09T03:09:43.200Z,3.18
2016-11-09T03:10:43.210Z,3.18
2016-11-09T03:11:43.230Z,3.2
2016-11-09T03:12:43.248Z,3.08
2016-11-09T03:13:43.265Z,3.18
2016-11-09T03:14:43.281Z,3.02
2016-11-09T03:15:43.294Z,3.02
2016-11-09T03:16:43.316Z,3.03
2016-11-09T03:17:43.335Z,2.97
2016-11-09T03:19:43.368Z,3
2016-11-09T03:20:43.377Z,2.97
2016-11-09T03:21:43.393Z,2.87
2016-11-09T03:22:43.419Z,2.79
2016-11-09T03:23:58.344Z,2.99
2016-11-09T03:24:43.445Z,2.96
2016-11-09T03:25:43.467Z,3.02
2016-11-09T03:26:43.480Z,2.96
2016-11-09T03:27:43.495Z,2.97
2016-11-09T03:28:43.512Z,2.93
2016-11-09T03:29:43.524Z,2.95
2016-11-09T03:30:43.600Z,3.05
2016-11-09T03:31:43.566Z,2.97
2016-11-09T03:32:43.572Z,2.95
2016-11-09T03:33:58.509Z,2.82
2016-11-09T03:35:43.933Z,2.93
2016-11-09T03:36:43.646Z,2.97
2016-11-09T03:37:44.063Z,2.97
2016-11-09T03:38:43.993Z,2.85
2016-11-09T03:39:43.691Z,2.84
2016-11-09T03:40:43.706Z,2.78
2016-11-09T03:41:58.638Z,2.82
2016-11-09T03:42:43.741Z,2.75
2016-11-09T03:43:43.761Z,2.78
2016-11-09T03:44:43.777Z,2.75
2016-11-09T03:45:43.791Z,2.79
2016-11-09T03:46:43.811Z,2.84
2016-11-09T03:47:43.826Z,2.82
2016-11-09T03:48:43.841Z,2.78
2016-11-09T03:50:43.869Z,2.75
2016-11-09T03:51:43.893Z,2.74
2016-11-09T03:52:43.906Z,2.89
2016-11-09T03:53:43.920Z,2.79
2016-11-09T03:54:43.937Z,2.82
2016-11-09T03:55:44.260Z,2.82
2016-11-09T03:56:43.968Z,2.81
2016-11-09T03:57:43.991Z,2.99
2016-11-09T03:58:44.002Z,2.99
2016-11-09T03:59:44.053Z,2.92
2016-11-09T04:00:44.041Z,2.93
2016-11-09T04:01:44.053Z,2.85
2016-11-09T04:03:44.187Z,2.74
2016-11-09T04:04:44.106Z,2.75
2016-11-09T04:05:59.030Z,2.81
2016-11-09T04:06:44.143Z,2.82
2016-11-09T04:07:44.155Z,2.9
2016-11-09T04:08:44.416Z,2.84
2016-11-09T04:09:44.188Z,2.87
2016-11-09T04:10:59.118Z,2.78
2016-11-09T04:11:44.219Z,2.77
2016-11-09T04:12:44.237Z,2.75
2016-11-09T04:13:44.251Z,2.81
2016-11-09T04:14:59.179Z,2.72
2016-11-09T04:15:44.282Z,2.66
2016-11-09T04:16:44.301Z,2.59
2016-11-09T04:18:44.335Z,2.57
2016-11-09T04:20:44.364Z,2.6
2016-11-09T04:21:59.294Z,2.61
2016-11-09T04:22:44.407Z,2.48
2016-11-09T04:23:44.415Z,2.45
2016-11-09T04:24:44.430Z,2.48
2016-11-09T04:26:44.462Z,2.56
2016-11-09T04:27:44.478Z,2.64
2016-11-09T04:28:44.498Z,2.56
2016-11-09T04:29:44.509Z,2.56
2016-11-09T04:30:44.528Z,2.67
2016-11-09T04:31:44.543Z,2.67
2016-11-09T04:32:44.561Z,2.57
2016-11-09T04:33:44.574Z,2.49
2016-11-09T04:34:44.589Z,2.57
2016-11-09T04:35:45.212Z,2.52
2016-11-09T04:36:59.543Z,2.54
2016-11-09T04:38:44.656Z,2.63
2016-11-09T04:39:44.724Z,2.49
2016-11-09T04:40:44.690Z,2.56
2016-11-09T04:41:44.709Z,2.38
2016-11-09T04:42:44.723Z,2.38
2016-11-09T04:43:59.655Z,2.41
2016-11-09T04:44:44.761Z,2.38
2016-11-09T04:45:44.776Z,2.31
2016-11-09T04:46:44.789Z,2.41
2016-11-09T04:47:44.806Z,2.2
2016-11-09T04:48:44.822Z,2.17
2016-11-09T04:49:44.835Z,2.14
2016-11-09T04:51:44.872Z,2.12
2016-11-09T04:53:44.907Z,2.14
2016-11-09T04:54:44.919Z,2.03
2016-11-09T04:55:44.955Z,1.87
2016-11-09T04:56:44.951Z,1.8
2016-11-09T04:57:44.964Z,1.84
2016-11-09T04:58:44.981Z,1.84
2016-11-09T04:59:45.303Z,1.79
2016-11-09T05:00:59.929Z,1.73
2016-11-09T05:01:45.032Z,1.76
2016-11-09T05:02:45.048Z,1.83
2016-11-09T05:03:45.069Z,1.77
2016-11-09T05:04:45.079Z,1.68
2016-11-09T05:05:45.098Z,1.69
2016-11-09T05:06:45.120Z,1.69
2016-11-09T05:07:45.160Z,1.63
2016-11-09T05:09:45.157Z,1.66
2016-11-09T05:10:45.179Z,1.66
2016-11-09T05:11:45.197Z,1.65
2016-11-09T05:12:45.212Z,1.54
2016-11-09T05:13:45.228Z,1.55
2016-11-09T05:14:45.242Z,1.55
2016-11-09T05:15:45.261Z,1.42
2016-11-09T05:16:45.275Z,1.34
2016-11-09T05:18:00.508Z,1.34
2016-11-09T05:18:45.308Z,1.26
2016-11-09T05:19:45.322Z,1.16
2016-11-09T05:20:45.338Z,1.23
2016-11-09T05:21:45.357Z,1.16
2016-11-09T05:22:45.369Z,1.12
2016-11-09T05:23:45.638Z,1.12
2016-11-09T05:25:00.318Z,1.09
2016-11-09T05:25:45.764Z,1.18
2016-11-09T05:26:45.745Z,1.05
2016-11-09T05:27:45.451Z,1.15
2016-11-09T05:28:45.466Z,1.15
2016-11-09T05:29:45.480Z,1.2
2016-11-09T05:30:45.498Z,1.09
2016-11-09T05:31:45.510Z,1.16
2016-11-09T05:32:45.529Z,1.09
2016-11-09T05:33:45.547Z,1.08
2016-11-09T05:35:00.472Z,1.04
2016-11-09T05:35:45.578Z,1.11
2016-11-09T05:36:45.600Z,1.16
2016-11-09T05:37:45.638Z,1.09
2016-11-09T05:41:45.671Z,0.98
2016-11-09T05:42:45.992Z,1.02
2016-11-09T05:43:45.707Z,0.93
2016-11-09T05:44:45.719Z,0.93
2016-11-09T05:45:45.741Z,0.83
2016-11-09T05:46:45.749Z,0.93
2016-11-09T05:47:45.766Z,0.91
2016-11-09T05:48:45.778Z,0.94
2016-11-09T05:49:45.800Z,0.94
2016-11-09T05:50:45.815Z,1.02
2016-11-09T05:51:45.832Z,0.93
2016-11-09T05:52:45.849Z,0.97
2016-11-09T05:54:45.874Z,0.98
2016-11-09T05:55:45.892Z,0.98
2016-11-09T05:57:00.825Z,0.88
2016-11-09T05:57:45.926Z,0.93
2016-11-09T05:58:46.315Z,0.9
2016-11-09T05:59:45.950Z,0.9
2016-11-09T06:00:45.968Z,0.78
2016-11-09T06:02:00.901Z,0.69
2016-11-09T06:02:46.004Z,0.66
2016-11-09T06:03:46.017Z,0.75
2016-11-09T06:04:46.034Z,0.78
2016-11-09T06:05:46.049Z,0.69
2016-11-09T06:06:46.067Z,0.76
2016-11-09T06:07:46.079Z,0.86
2016-11-09T06:08:46.102Z,0.86
2016-11-09T06:09:46.107Z,0.97
2016-11-09T06:10:46.126Z,0.98
2016-11-09T06:12:01.058Z,1.04
2016-11-09T06:12:46.156Z,1
2016-11-09T06:13:46.172Z,0.98
2016-11-09T06:14:46.193Z,1
2016-11-09T06:15:46.202Z,1.09
2016-11-09T06:16:46.221Z,1.04
2016-11-09T06:17:46.243Z,0.96
2016-11-09T06:18:46.293Z,0.86
2016-11-09T06:19:46.271Z,0.88
2016-11-09T06:20:46.284Z,0.87
2016-11-09T06:21:46.296Z,0.86
2016-11-09T06:22:46.312Z,0.8
2016-11-09T06:24:46.344Z,0.87
2016-11-09T06:25:46.357Z,0.84
2016-11-09T06:26:46.412Z,0.91
2016-11-09T06:27:46.393Z,0.87
2016-11-09T06:28:46.405Z,1
2016-11-09T06:29:46.422Z,0.84
2016-11-09T06:30:46.470Z,0.87
2016-11-09T06:32:46.472Z,0.8
2016-11-09T06:33:46.484Z,0.8
2016-11-09T06:34:46.504Z,0.84
2016-11-09T06:37:02.194Z,0.83
2016-11-09T06:37:46.546Z,0.94
2016-11-09T06:38:46.563Z,0.87
2016-11-09T06:39:46.576Z,0.9
2016-11-09T06:41:46.609Z,1.05
2016-11-09T06:42:46.627Z,1.04
2016-11-09T06:44:46.662Z,1
2016-11-09T06:45:46.670Z,1.09
2016-11-09T06:46:46.684Z,0.93
2016-11-09T06:47:46.707Z,0.96
2016-11-09T06:48:46.728Z,1.02
2016-11-09T06:49:46.745Z,1.06
2016-11-09T06:50:46.756Z,1.02
2016-11-09T06:51:46.762Z,1.09
2016-11-09T06:52:46.787Z,1.09
2016-11-09T06:53:46.798Z,1.15
2016-11-09T06:54:46.814Z,1.12
2016-11-09T06:55:47.080Z,1.16
2016-11-09T06:56:46.844Z,1.09
2016-11-09T06:57:46.863Z,1.23
2016-11-09T06:58:46.879Z,1.23
2016-11-09T07:00:01.840Z,1.3
2016-11-09T07:00:46.909Z,1.32
2016-11-09T07:01:46.924Z,1.34
2016-11-09T07:02:46.939Z,1.34
2016-11-09T07:03:46.953Z,1.4
2016-11-09T07:04:46.966Z,1.33
2016-11-09T07:05:46.987Z,1.41
2016-11-09T07:06:47.007Z,1.55
2016-11-09T07:07:47.020Z,1.47
2016-11-09T07:08:47.028Z,1.47
2016-11-09T07:09:47.051Z,1.5
2016-11-09T07:10:47.063Z,1.54
2016-11-09T07:12:47.092Z,1.62
2016-11-09T07:13:47.115Z,1.62
2016-11-09T07:14:47.122Z,1.66
2016-11-09T07:16:02.054Z,1.63
2016-11-09T07:16:47.160Z,1.69
2016-11-09T07:17:47.171Z,1.69
2016-11-09T07:18:47.190Z,1.8
2016-11-09T07:19:47.201Z,1.77
2016-11-09T07:20:47.220Z,1.76
2016-11-09T07:21:47.233Z,1.83
2016-11-09T07:22:47.248Z,1.91
2016-11-09T07:23:47.268Z,1.91
2016-11-09T07:24:47.279Z,1.98
2016-11-09T07:26:47.314Z,2.02
2016-11-09T07:27:47.333Z,2.14
2016-11-09T07:28:47.346Z,2.12
2016-11-09T07:32:02.307Z,2.06
2016-11-09T07:32:47.415Z,2.06
2016-11-09T07:33:47.475Z,2.06
2016-11-09T07:34:47.447Z,2.12
2016-11-09T07:36:02.376Z,2.1
2016-11-09T07:36:47.475Z,2.07
2016-11-09T07:37:47.487Z,2.12
2016-11-09T07:39:02.420Z,2.17
2016-11-09T07:39:47.523Z,2.21
2016-11-09T07:40:47.541Z,2.2
2016-11-09T07:41:47.559Z,2.36
2016-11-09T07:42:47.885Z,2.31
2016-11-09T07:43:47.583Z,2.41
2016-11-09T07:44:47.604Z,2.3
2016-11-09T07:45:47.671Z,2.43
2016-11-09T07:47:02.563Z,2.52
2016-11-09T07:47:47.654Z,2.45
2016-11-09T07:48:47.668Z,2.45
2016-11-09T07:49:47.682Z,2.46
2016-11-09T07:50:48.038Z,2.45
2016-11-09T07:51:47.714Z,2.49
2016-11-09T07:53:02.646Z,2.63
2016-11-09T07:53:47.751Z,2.61
2016-11-09T07:54:47.765Z,2.72
2016-11-09T07:56:02.693Z,2.81
2016-11-09T07:56:48.167Z,2.84
2016-11-09T07:57:47.815Z,2.81
2016-11-09T07:58:47.831Z,3
2016-11-09T07:59:47.841Z,3.21
2016-11-09T08:00:47.865Z,3.21
2016-11-09T08:01:47.881Z,3.39
2016-11-09T08:02:47.895Z,3.42
2016-11-09T08:04:02.833Z,3.6
2016-11-09T08:04:47.927Z,3.6
2016-11-09T08:05:47.943Z,3.58
2016-11-09T08:06:47.963Z,3.68
2016-11-09T08:08:02.894Z,3.62
2016-11-09T08:08:48.002Z,3.66
2016-11-09T08:09:48.014Z,3.73
2016-11-09T08:10:48.035Z,3.69
2016-11-09T08:11:48.048Z,3.73
2016-11-09T08:12:48.895Z,3.73
2016-11-09T08:13:48.081Z,3.8
2016-11-09T08:14:48.099Z,3.84
2016-11-09T08:15:48.155Z,3.8
2016-11-09T08:16:48.132Z,3.72
2016-11-09T08:17:48.144Z,3.87
2016-11-09T08:19:03.095Z,3.87
2016-11-09T08:19:48.188Z,3.93
2016-11-09T08:20:48.198Z,3.97
2016-11-09T08:23:03.152Z,4.2
2016-11-09T08:23:48.252Z,4.27
2016-11-09T08:24:48.271Z,4.33
2016-11-09T08:25:48.287Z,4.36
2016-11-09T08:26:48.306Z,4.45
2016-11-09T08:28:03.234Z,4.41
2016-11-09T08:28:48.339Z,4.54
2016-11-09T08:29:48.661Z,4.7
2016-11-09T08:30:48.372Z,4.73
2016-11-09T08:31:48.396Z,4.88
2016-11-09T08:32:48.408Z,5
2016-11-09T08:33:48.427Z,5.07
2016-11-09T08:35:03.362Z,5.18
2016-11-09T08:37:48.498Z,5.36
2016-11-09T08:38:48.516Z,5.39
2016-11-09T08:39:48.531Z,5.54
2016-11-09T08:40:48.566Z,5.72
2016-11-09T08:41:48.571Z,5.67
2016-11-09T08:43:03.505Z,5.49
2016-11-09T08:43:48.606Z,5.46
2016-11-09T08:44:48.630Z,5.43
2016-11-09T08:45:48.647Z,5.49
2016-11-09T08:47:48.718Z,5.45
2016-11-09T08:48:48.699Z,5.49
2016-11-09T08:49:48.719Z,5.53
2016-11-09T08:51:03.655Z,5.46
2016-11-09T08:51:48.796Z,5.38
2016-11-09T08:52:48.775Z,5.39
2016-11-09T08:53:48.794Z,5.53
2016-11-09T08:55:03.730Z,5.56
2016-11-09T08:55:48.831Z,5.45
2016-11-09T08:56:49.160Z,5.36
2016-11-09T08:58:03.786Z,5.38
2016-11-09T08:58:48.890Z,5.31
2016-11-09T08:59:48.906Z,5.22
2016-11-09T09:01:49.254Z,5.12
2016-11-09T09:02:48.964Z,5.3
2016-11-09T09:03:48.987Z,5.27
2016-11-09T09:04:49.051Z,5.33
2016-11-09T09:05:49.017Z,5.31
2016-11-09T09:07:03.957Z,5.28
2016-11-09T09:07:49.108Z,5.3
2016-11-09T09:08:49.075Z,5.25
2016-11-09T09:09:49.404Z,5.39
2016-11-09T09:10:49.267Z,5.39
2016-11-09T09:11:49.138Z,5.36
2016-11-09T09:12:49.453Z,5.46
2016-11-09T09:14:04.084Z,5.45
2016-11-09T09:14:49.229Z,5.39
2016-11-09T09:15:49.207Z,5.39
2016-11-09T09:17:04.139Z,5.38
2016-11-09T09:17:49.254Z,5.39
2016-11-09T09:18:49.263Z,5.27
2016-11-09T09:19:49.284Z,5.2
2016-11-09T09:20:49.305Z,5.18
2016-11-09T09:22:04.235Z,5.25
2016-11-09T09:22:49.349Z,5.35
2016-11-09T09:23:49.917Z,5.33
2016-11-09T09:24:49.377Z,5.31
2016-11-09T09:25:49.436Z,5.28
2016-11-09T09:26:49.517Z,5.24
2016-11-09T09:27:49.469Z,5.25
2016-11-09T09:28:49.458Z,5.36
2016-11-09T09:29:49.629Z,5.3
2016-11-09T09:30:49.492Z,5.2
2016-11-09T09:31:49.515Z,5.2
2016-11-09T09:32:49.528Z,5.2
2016-11-09T09:33:49.547Z,5.27
2016-11-09T09:34:49.571Z,5.24
2016-11-09T09:35:49.592Z,5.18
2016-11-09T09:36:49.603Z,5.13
2016-11-09T09:37:49.634Z,5.25
2016-11-09T09:38:49.641Z,5.39
2016-11-09T09:39:49.659Z,5.33
2016-11-09T09:40:49.681Z,5.42
2016-11-09T09:41:50.001Z,5.43
2016-11-09T09:42:49.715Z,5.64
2016-11-09T09:43:50.040Z,5.82
2016-11-09T09:44:49.759Z,5.94
2016-11-09T09:46:04.706Z,5.96
2016-11-09T09:46:49.796Z,5.94
2016-11-09T09:47:49.811Z,5.85
2016-11-09T09:48:49.833Z,5.76
2016-11-09T09:49:49.850Z,5.82
2016-11-09T09:50:49.864Z,5.72
2016-11-09T09:51:49.893Z,5.64
2016-11-09T09:52:49.907Z,5.64
2016-11-09T09:54:04.837Z,5.51
2016-11-09T09:54:49.940Z,5.42
2016-11-09T09:55:50.267Z,5.36
2016-11-09T09:56:49.982Z,5.33
2016-11-09T09:57:50.002Z,5.28
2016-11-09T09:58:50.021Z,5.36
2016-11-09T09:59:50.041Z,5.42
2016-11-09T10:00:50.054Z,5.27
2016-11-09T10:01:50.079Z,5.24
2016-11-09T10:02:50.097Z,5.28
2016-11-09T10:03:50.115Z,5.31
2016-11-09T10:04:50.162Z,5.38
2016-11-09T10:05:50.155Z,5.31
2016-11-09T10:06:50.169Z,5.33
2016-11-09T10:07:50.189Z,5.27
2016-11-09T10:08:50.214Z,5.3
2016-11-09T10:10:05.147Z,5.36
2016-11-09T10:10:50.248Z,5.36
2016-11-09T10:11:50.262Z,5.38
2016-11-09T10:12:50.289Z,5.42
2016-11-09T10:14:05.218Z,5.54
2016-11-09T10:14:50.319Z,5.54
2016-11-09T10:16:50.353Z,5.64
2016-11-09T10:17:50.373Z,5.71
2016-11-09T10:18:50.403Z,5.85
2016-11-09T10:19:50.417Z,5.86
2016-11-09T10:20:50.439Z,5.85
2016-11-09T10:22:50.508Z,5.85
2016-11-09T10:23:50.490Z,5.9
2016-11-09T10:26:05.440Z,6
2016-11-09T10:27:50.563Z,5.85
2016-11-09T10:28:50.582Z,5.72
2016-11-09T10:29:50.603Z,5.83
2016-11-09T10:31:05.537Z,5.85
2016-11-09T10:31:50.641Z,5.89
2016-11-09T10:33:50.675Z,5.9
2016-11-09T10:34:50.693Z,5.97
2016-11-09T10:36:50.732Z,6.03
2016-11-09T10:37:50.754Z,5.97
2016-11-09T10:38:50.779Z,5.9
2016-11-09T10:40:50.809Z,5.94
2016-11-09T10:42:05.747Z,5.94
2016-11-09T10:42:50.882Z,5.99
2016-11-09T10:44:50.883Z,5.97
2016-11-09T10:45:50.902Z,5.89
2016-11-09T10:46:50.923Z,5.85
2016-11-09T10:48:50.955Z,5.82
2016-11-09T10:49:50.978Z,5.86
2016-11-09T10:50:50.998Z,5.82
2016-11-09T10:51:51.018Z,5.93
2016-11-09T10:52:51.036Z,6
2016-11-09T10:53:51.054Z,6.04
2016-11-09T10:54:51.077Z,6.04
2016-11-09T10:57:06.025Z,6.03
2016-11-09T10:57:51.130Z,6
2016-11-09T10:58:51.145Z,5.97
2016-11-09T10:59:51.169Z,5.89
2016-11-09T11:00:51.287Z,5.89
2016-11-09T11:01:51.200Z,5.97
2016-11-09T11:03:06.138Z,5.94
2016-11-09T11:03:51.244Z,5.94
2016-11-09T11:04:51.367Z,6
2016-11-09T11:05:51.282Z,6.03
2016-11-09T11:06:51.295Z,6.03
2016-11-09T11:07:51.366Z,6.03
2016-11-09T11:08:51.333Z,6.04
2016-11-09T11:09:51.353Z,6.08
2016-11-09T11:10:51.824Z,6.11
2016-11-09T11:11:51.394Z,6.11
2016-11-09T11:12:51.443Z,6.11
2016-11-09T11:13:51.429Z,6.03
2016-11-09T11:14:51.451Z,6.01
2016-11-09T11:15:51.468Z,5.96
2016-11-09T11:16:51.491Z,6.06
2016-11-09T11:17:51.703Z,6.06
2016-11-09T11:18:51.524Z,6.19
2016-11-09T11:19:51.542Z,6.25
2016-11-09T11:21:06.477Z,6.46
2016-11-09T11:21:52.032Z,6.4
2016-11-09T11:23:51.623Z,6.51
2016-11-09T11:24:51.640Z,6.46
2016-11-09T11:25:51.661Z,6.48
2016-11-09T11:27:51.861Z,6.52
2016-11-09T11:29:06.627Z,6.59
2016-11-09T11:29:51.730Z,6.74
2016-11-09T11:30:53.499Z,6.67
2016-11-09T11:31:51.817Z,6.7
2016-11-09T11:32:51.795Z,6.55
2016-11-09T11:33:51.806Z,6.38
2016-11-09T11:34:51.876Z,6.22
2016-11-09T11:35:52.138Z,6.21
2016-11-09T11:36:51.862Z,6.19
2016-11-09T11:37:51.936Z,6.31
2016-11-09T11:38:51.909Z,6.41
2016-11-09T11:39:52.672Z,6.44
2016-11-09T11:40:51.940Z,6.56
2016-11-09T11:41:51.959Z,6.54
2016-11-09T11:42:51.986Z,6.59
2016-11-09T11:45:06.935Z,6.48
2016-11-09T11:45:52.037Z,6.38
2016-11-09T11:46:52.054Z,6.44
2016-11-09T11:47:52.074Z,6.31
2016-11-09T11:48:52.094Z,6.33
2016-11-09T11:49:52.110Z,6.21
2016-11-09T11:50:52.134Z,6.3
2016-11-09T11:51:52.249Z,6.31
2016-11-09T11:52:52.166Z,6.46
2016-11-09T11:53:52.349Z,6.48
2016-11-09T11:54:52.208Z,6.4
2016-11-09T11:55:52.227Z,6.31
2016-11-09T11:56:52.248Z,6.28
2016-11-09T11:57:52.365Z,6.31
2016-11-09T11:58:52.286Z,6.28
2016-11-09T11:59:52.304Z,6.3
2016-11-09T12:01:07.233Z,6.17
2016-11-09T12:01:52.338Z,6.21
2016-11-09T12:02:52.458Z,6.31
2016-11-09T12:03:52.478Z,6.28
2016-11-09T12:04:52.393Z,6.46
2016-11-09T12:05:52.414Z,6.46
2016-11-09T12:06:52.440Z,6.55
2016-11-09T12:07:52.557Z,6.61
2016-11-09T12:08:52.572Z,6.66
2016-11-09T12:09:52.491Z,6.73
2016-11-09T12:10:52.514Z,6.71
2016-11-09T12:11:52.561Z,6.74
2016-11-09T12:12:52.546Z,6.77
2016-11-09T12:13:52.575Z,6.71
2016-11-09T12:14:52.587Z,6.69
2016-11-09T12:15:52.652Z,6.61
2016-11-09T12:17:07.592Z,6.69
2016-11-09T12:17:52.653Z,6.67
2016-11-09T12:18:52.718Z,6.76
2016-11-09T12:19:52.684Z,6.73
2016-11-09T12:21:07.619Z,6.69
2016-11-09T12:21:53.027Z,6.84
2016-11-09T12:22:52.742Z,6.91
2016-11-09T12:23:52.842Z,6.81
2016-11-09T12:24:52.779Z,6.74
2016-11-09T12:25:52.802Z,6.62
2016-11-09T12:26:52.869Z,6.59
2016-11-09T12:27:53.440Z,6.54
2016-11-09T12:28:53.961Z,6.54
2016-11-09T12:30:53.204Z,6.54
2016-11-09T12:32:08.076Z,6.52
2016-11-09T12:32:52.930Z,6.62
2016-11-09T12:33:53.502Z,6.56
2016-11-09T12:34:52.967Z,6.54
2016-11-09T12:36:07.904Z,6.52
2016-11-09T12:36:53.006Z,6.69
2016-11-09T12:37:53.025Z,6.79
2016-11-09T12:38:53.045Z,6.79
2016-11-09T12:39:53.064Z,6.74
2016-11-09T12:40:53.081Z,6.74
2016-11-09T12:41:53.096Z,6.76
2016-11-09T12:42:53.119Z,6.62
2016-11-09T12:43:53.138Z,6.56
2016-11-09T12:44:53.161Z,6.41
2016-11-09T12:45:53.181Z,6.37
2016-11-09T12:46:53.192Z,6.28
2016-11-09T12:47:53.210Z,6.33
2016-11-09T12:48:53.235Z,6.18
2016-11-09T12:49:53.255Z,6.08
2016-11-09T12:50:53.271Z,6.15
2016-11-09T12:51:53.292Z,6
2016-11-09T12:52:53.311Z,5.94
2016-11-09T12:53:53.324Z,5.97
2016-11-09T12:54:53.354Z,5.86
2016-11-09T12:55:53.368Z,6
2016-11-09T12:56:53.386Z,6.09
2016-11-09T12:57:53.406Z,6.03
2016-11-09T12:58:53.420Z,6.08
2016-11-09T12:59:53.470Z,6.03
2016-11-09T13:00:53.488Z,5.99
2016-11-09T13:01:53.476Z,6
2016-11-09T13:02:53.495Z,6.03
2016-11-09T13:04:53.539Z,5.86
2016-11-09T13:05:53.553Z,5.85
2016-11-09T13:06:53.569Z,5.89
2016-11-09T13:07:53.595Z,5.76
2016-11-09T13:09:08.527Z,5.71
2016-11-09T13:09:53.732Z,5.65
2016-11-09T13:10:53.659Z,5.65
2016-11-09T13:11:53.669Z,5.64
2016-11-09T13:13:08.597Z,5.65
2016-11-09T13:14:08.616Z,5.63
2016-11-09T13:14:53.724Z,5.67
2016-11-09T13:15:53.740Z,5.64
2016-11-09T13:16:53.795Z,5.6
2016-11-09T13:18:53.797Z,5.49
2016-11-09T13:20:08.727Z,5.46
2016-11-09T13:20:53.836Z,5.42
2016-11-09T13:21:53.851Z,5.38
2016-11-09T13:22:53.896Z,5.42
2016-11-09T13:24:53.912Z,5.27
2016-11-09T13:25:53.922Z,5.39
2016-11-09T13:27:08.859Z,5.38
2016-11-09T13:27:53.963Z,5.38
2016-11-09T13:28:53.982Z,5.31
2016-11-09T13:29:53.999Z,5.4
2016-11-09T13:30:54.071Z,5.36
2016-11-09T13:31:54.137Z,5.38
2016-11-09T13:32:54.073Z,5.36
2016-11-09T13:33:54.077Z,5.35
2016-11-09T13:34:54.191Z,5.4
2016-11-09T13:36:09.122Z,5.33
2016-11-09T13:36:54.182Z,5.3
2016-11-09T13:37:54.206Z,5.36
2016-11-09T13:38:54.167Z,5.33
2016-11-09T13:39:54.234Z,5.38
2016-11-09T13:40:54.505Z,5.35
2016-11-09T13:41:54.371Z,5.22
2016-11-09T13:42:54.336Z,5.15
2016-11-09T13:43:54.255Z,5.13
2016-11-09T13:44:54.328Z,5.22
2016-11-09T13:45:54.643Z,5.13
2016-11-09T13:46:54.464Z,5.18
2016-11-09T13:47:54.326Z,5.1
2016-11-09T13:48:54.448Z,5.04
2016-11-09T13:49:54.366Z,5.07
2016-11-09T13:50:54.380Z,5
2016-11-09T13:52:09.414Z,5.09
2016-11-09T13:52:54.420Z,5.1
2016-11-09T13:53:54.490Z,5.1
2016-11-09T13:54:54.559Z,5.13
2016-11-09T13:55:54.475Z,5.21
2016-11-09T13:56:54.490Z,5.13
2016-11-09T13:57:54.508Z,5.25
2016-11-09T13:59:09.445Z,5.28
2016-11-09T14:00:09.461Z,5.3
2016-11-09T14:02:09.547Z,5.25
2016-11-09T14:02:54.602Z,5.22
2016-11-09T14:03:54.623Z,5.22
2016-11-09T14:04:54.644Z,5.2
2016-11-09T14:05:54.657Z,5.3
2016-11-09T14:07:09.591Z,5.27
2016-11-09T14:07:54.696Z,5.36
2016-11-09T14:08:54.716Z,5.33
2016-11-09T14:09:54.729Z,5.33
2016-11-09T14:10:54.749Z,5.27
2016-11-09T14:11:54.764Z,5.24
2016-11-09T14:13:09.701Z,5.31
2016-11-09T14:14:09.719Z,5.15
2016-11-09T14:14:54.975Z,5.1
2016-11-09T14:15:54.840Z,5.18
2016-11-09T14:17:55.098Z,5.09
2016-11-09T14:18:54.948Z,5.1
2016-11-09T14:20:54.930Z,5.1
2016-11-09T14:21:54.953Z,5.13
2016-11-09T14:22:55.020Z,5.15
2016-11-09T14:23:54.986Z,5.12
2016-11-09T14:24:55.304Z,5.1
2016-11-09T14:25:55.028Z,5.1